Quebec, Canada
Current Conditions -  °F | °C
As of 7:42 AM on Saturday 20 Dec 2014 (Local Time) from CYQB Reporting Station
Scattered Clouds Scattered Clouds  
Wind Chill:   Ceiling: Unl
Heat Index:   Visibility: 7mi
Dew Point: -2°   Wind: 0mph
Humidity: 85%   Direction: NA
Pressure: 30.35"   Gusts: NA
Location:  46.81°N, 71.22°W
Report Text: CYQB 201242Z 00000KT 7SM SCT001 M17/M19 A3035 RMK SF4 FG THR 06 VIS S-W 1/2 SLP285
Loading
Personal Weather Stations






























Interactive Weather Map New forecast layout! Learn more

10-Day Weather Forecast

Advertisements
Track Severe Weather on mobile